Etusivu
METAR-TAF:

METAR-TAF

Lentoasemat :

Ålesund, Norja

Leveyspiiri: 62-34N, Pituuspiiri: 006-07E, korkeus merenpinnasta: 2 m

Tämänhetkinen sää

Tämä raportti tehtiin 31 minuuttia sitten, kello 11.50 UTC
Tuuli 7 kn idästä/koillisesta
Lämpötila 2°C
Kosteus 93%
Ilmanpaine 996 hPa
Näkyvyys 10 km tai enemmän
Hajanaisia pilviä 1800 ft:n korkeudessa
Hajonneita pilviä 3000 ft:n korkeudessa
heikkoa tihkusadetta

METAR: ENAL 131150Z 07007KT 9999 -DZ SCT018 BKN030 02/01 Q0996

Aika: 13:21 (12:21 UTC)

Sääennuste

Tämä raportti tehtiin 1 tunti ja 21 minuuttia sitten, kello 11.00 UTC
Ennuste voimassa 13. päivästä klo 12 UTC - 13. päivään klo 21 UTC
Tuuli 5 kn koillisesta
Näkyvyys 10 km tai enemmän
Muutamia pilviä 800 ft:n korkeudessa
Hajonneita pilviä 1800 ft:n korkeudessa
heikkoa sadetta
Ajoittain
13. päivästä klo 12 UTC - 13. päivään klo 21 UTC
Hajonneita pilviä 800 ft:n korkeudessa

TAF: ENAL 131100Z 1312/1321 04005KT 9999 -RA FEW008 BKN018 TEMPO 1312/1321 BKN008

Säähavainnot ja -ennusteet yli 4000 lentoasemalta (METAR- ja TAF-raportit).

Käytössä olevat sääasemat on merkitty karttaan keltaisilla ja punaisilla pisteillä.

Aseta hiiri pisteen päälle nähdäksesi sääaseman nimen.

Klikkaa sitten nähdäksesi säähavainnot ja -ennusteet.

Kartan vaihtaminen: klikkaa mustalla rastilla varustettuja vihreitä pisteitä, niin voit zoomata sisään; viivalla varustettua vihreää pistettä, niin voit zoomata ulos tai vihreitä nuolia, niin pääset viereisille kartoille.


METAR-TAF: